createdAt,value
2019-02-27T00:00:36.989Z,3.6
2019-02-27T00:01:38.379Z,3.6
2019-02-27T00:02:39.916Z,3.6
2019-02-27T00:03:41.315Z,3.6
2019-02-27T00:04:43.087Z,3.5
2019-02-27T00:05:44.651Z,3.5
2019-02-27T00:06:47.670Z,3.5
2019-02-27T00:07:47.399Z,3.5
2019-02-27T00:08:48.970Z,3.5
2019-02-27T00:09:50.363Z,3.5
2019-02-27T00:10:52.232Z,3.5
2019-02-27T00:11:53.630Z,3.5
2019-02-27T00:12:55.299Z,3.5
2019-02-27T00:13:57.996Z,3.4
2019-02-27T00:14:58.349Z,3.4
2019-02-27T00:15:59.744Z,3.4
2019-02-27T00:17:01.403Z,3.4
2019-02-27T00:18:03.918Z,3.5
2019-02-27T00:19:05.308Z,3.4
2019-02-27T00:20:06.930Z,3.4
2019-02-27T00:21:10.498Z,3.4
2019-02-27T00:22:10.059Z,3.4
2019-02-27T00:23:11.594Z,3.4
2019-02-27T00:24:13.010Z,3.4
2019-02-27T00:25:14.517Z,3.4
2019-02-27T00:26:15.910Z,3.4
2019-02-27T00:27:17.321Z,3.3
2019-02-27T00:28:23.080Z,3.3
2019-02-27T00:29:20.177Z,3.3
2019-02-27T00:30:21.576Z,3.3
2019-02-27T00:31:23.117Z,3.3
2019-02-27T00:32:24.889Z,3.3
2019-02-27T00:33:28.443Z,3.2
2019-02-27T00:34:27.848Z,3.2
2019-02-27T00:35:29.243Z,3.2
2019-02-27T00:36:30.661Z,3.2
2019-02-27T00:37:32.235Z,3.2
2019-02-27T00:38:33.584Z,3.3
2019-02-27T00:39:34.961Z,3.3
2019-02-27T00:40:39.302Z,3.2
2019-02-27T00:41:38.274Z,3.2
2019-02-27T00:42:39.668Z,3.2
2019-02-27T00:43:41.237Z,3.2
2019-02-27T00:44:42.616Z,3.1
2019-02-27T00:45:44.480Z,3.2
2019-02-27T00:46:46.460Z,3.2
2019-02-27T00:47:47.230Z,3.2
2019-02-27T00:48:48.835Z,3.2
2019-02-27T00:49:50.229Z,3.2
2019-02-27T00:50:51.623Z,3.2
2019-02-27T00:51:53.159Z,3.1
2019-02-27T00:52:54.587Z,3.2
2019-02-27T00:53:58.279Z,3.1
2019-02-27T00:54:57.500Z,3.1
2019-02-27T00:55:58.891Z,3.1
2019-02-27T00:57:00.289Z,3.1
2019-02-27T00:58:01.803Z,3.1
2019-02-27T00:59:03.210Z,3.1
2019-02-27T01:00:06.623Z,3.1
2019-02-27T01:01:06.039Z,3.1
2019-02-27T01:02:07.702Z,3.1
2019-02-27T01:03:09.088Z,3.1
2019-02-27T01:04:10.646Z,3.0
2019-02-27T01:05:12.465Z,3.0
2019-02-27T01:06:14.822Z,3.0
2019-02-27T01:07:20.246Z,3.1
2019-02-27T01:08:16.829Z,3.0
2019-02-27T01:09:18.221Z,3.1
2019-02-27T01:10:20.078Z,3.0
2019-02-27T01:11:21.470Z,3.0
2019-02-27T01:12:25.237Z,3.0
2019-02-27T01:13:24.736Z,3.0
2019-02-27T01:14:26.276Z,3.0
2019-02-27T01:15:27.671Z,3.0
2019-02-27T01:16:29.160Z,3.0
2019-02-27T01:17:30.560Z,3.0
2019-02-27T01:18:32.042Z,3.0
2019-02-27T01:19:35.851Z,3.0
2019-02-27T01:20:34.921Z,3.0
2019-02-27T01:21:36.315Z,3.0
2019-02-27T01:22:37.822Z,3.0
2019-02-27T01:23:41.644Z,2.9
2019-02-27T01:24:40.711Z,2.9
2019-02-27T01:25:42.177Z,2.9
2019-02-27T01:26:43.770Z,2.7
2019-02-27T01:27:45.164Z,2.8
2019-02-27T01:28:46.577Z,2.8
2019-02-27T01:29:50.884Z,2.8
2019-02-27T01:30:49.308Z,2.8
2019-02-27T01:31:51.154Z,2.9
2019-02-27T01:32:52.544Z,2.8
2019-02-27T01:33:53.950Z,2.8
2019-02-27T01:34:55.501Z,2.7
2019-02-27T01:35:56.892Z,2.8
2019-02-27T01:36:58.609Z,2.8
2019-02-27T01:37:59.824Z,2.8
2019-02-27T01:39:01.215Z,2.8
2019-02-27T01:40:02.615Z,2.8
2019-02-27T01:41:04.560Z,2.7
2019-02-27T01:42:05.963Z,2.7
2019-02-27T01:43:07.354Z,2.7
2019-02-27T01:44:11.151Z,2.6
2019-02-27T01:45:10.233Z,2.7
2019-02-27T01:46:11.626Z,2.6
2019-02-27T01:47:13.193Z,2.6
2019-02-27T01:48:14.587Z,2.7
2019-02-27T01:49:16.744Z,2.7
2019-02-27T01:50:19.964Z,2.7
2019-02-27T01:51:19.362Z,2.6
2019-02-27T01:52:20.762Z,2.7
2019-02-27T01:53:22.632Z,2.5
2019-02-27T01:54:24.027Z,2.6
2019-02-27T01:55:25.539Z,2.6
2019-02-27T01:56:28.910Z,2.6
2019-02-27T01:57:29.109Z,2.6
2019-02-27T01:58:30.500Z,2.5
2019-02-27T01:59:32.503Z,2.5
2019-02-27T02:00:34.661Z,2.5
2019-02-27T02:01:36.235Z,2.5
2019-02-27T02:02:40.418Z,2.5
2019-02-27T02:03:39.520Z,2.5
2019-02-27T02:04:40.913Z,2.5
2019-02-27T02:05:42.394Z,2.5
2019-02-27T02:06:43.790Z,2.5
2019-02-27T02:07:45.280Z,2.4
2019-02-27T02:08:48.239Z,2.5
2019-02-27T02:09:48.039Z,2.4
2019-02-27T02:10:49.616Z,2.4
2019-02-27T02:11:51.017Z,2.4
2019-02-27T02:12:52.780Z,2.4
2019-02-27T02:13:54.343Z,2.4
2019-02-27T02:14:56.135Z,2.5
2019-02-27T02:15:58.117Z,2.5
2019-02-27T02:16:59.002Z,2.5
2019-02-27T02:18:00.603Z,2.4
2019-02-27T02:19:01.999Z,2.4
2019-02-27T02:20:03.596Z,2.5
2019-02-27T02:21:05.378Z,2.5
2019-02-27T02:22:08.909Z,2.4
2019-02-27T02:23:08.249Z,2.5
2019-02-27T02:24:09.755Z,2.4
2019-02-27T02:25:11.105Z,2.4
2019-02-27T02:26:12.652Z,2.4
2019-02-27T02:27:14.036Z,2.4
2019-02-27T02:28:15.543Z,2.4
2019-02-27T02:29:17.938Z,2.4
2019-02-27T02:30:18.404Z,2.3
2019-02-27T02:31:19.803Z,2.4
2019-02-27T02:32:21.283Z,2.4
2019-02-27T02:33:28.666Z,2.4
2019-02-27T02:34:24.275Z,2.4
2019-02-27T02:35:25.670Z,2.3
2019-02-27T02:36:27.247Z,2.3
2019-02-27T02:37:28.644Z,2.2
2019-02-27T02:38:30.174Z,2.2
2019-02-27T02:39:31.576Z,2.3
2019-02-27T02:40:33.010Z,2.2
2019-02-27T02:41:34.439Z,2.3
2019-02-27T02:42:35.889Z,2.3
2019-02-27T02:43:40.510Z,2.2
2019-02-27T02:44:39.202Z,2.2
2019-02-27T02:45:40.594Z,2.2
2019-02-27T02:46:45.330Z,2.3
2019-02-27T02:47:43.800Z,2.3
2019-02-27T02:48:45.359Z,2.3
2019-02-27T02:49:46.797Z,2.2
2019-02-27T02:50:53.991Z,2.3
2019-02-27T02:51:49.599Z,2.2
2019-02-27T02:52:51.123Z,2.3
2019-02-27T02:53:52.521Z,2.2
2019-02-27T02:54:54.022Z,2.2
2019-02-27T02:55:55.762Z,2.2
2019-02-27T02:57:00.549Z,2.3
2019-02-27T02:57:58.648Z,2.2
2019-02-27T02:59:00.057Z,2.3
2019-02-27T03:00:01.851Z,2.2
2019-02-27T03:01:02.973Z,2.2
2019-02-27T03:02:04.360Z,2.1
2019-02-27T03:03:05.929Z,2.2
2019-02-27T03:04:12.520Z,2.1
2019-02-27T03:05:08.686Z,2.1
2019-02-27T03:06:10.250Z,2.1
2019-02-27T03:07:11.814Z,2.2
2019-02-27T03:08:19.725Z,2.2
2019-02-27T03:09:14.986Z,2.2
2019-02-27T03:10:16.372Z,2.2
2019-02-27T03:11:19.036Z,2.2
2019-02-27T03:12:19.117Z,2.1
2019-02-27T03:13:20.520Z,2.1
2019-02-27T03:14:22.461Z,2.1
2019-02-27T03:15:28.417Z,2.1
2019-02-27T03:16:25.212Z,2.2
2019-02-27T03:17:26.723Z,2.1
2019-02-27T03:18:29.480Z,2.1
2019-02-27T03:19:29.504Z,2.1
2019-02-27T03:20:31.415Z,2.0
2019-02-27T03:21:32.813Z,2.0
2019-02-27T03:22:40.483Z,2.0
2019-02-27T03:23:35.687Z,2.0
2019-02-27T03:24:37.205Z,2.1
2019-02-27T03:25:40.661Z,2.1
2019-02-27T03:26:40.084Z,2.0
2019-02-27T03:27:41.479Z,2.1
2019-02-27T03:28:42.965Z,2.1
2019-02-27T03:29:44.367Z,2.0
2019-02-27T03:30:45.899Z,2.0
2019-02-27T03:31:57.897Z,2.1
2019-02-27T03:34:09.037Z,2.0
2019-02-27T03:35:09.988Z,2.1
2019-02-27T03:36:31.643Z,2.1
2019-02-27T03:37:33.043Z,2.1
2019-02-27T03:38:55.916Z,2.1
2019-02-27T03:39:56.307Z,2.0
2019-02-27T03:40:57.794Z,2.0
2019-02-27T03:41:59.652Z,2.0
2019-02-27T03:43:01.089Z,1.9
2019-02-27T03:44:02.480Z,2.0
2019-02-27T03:45:03.886Z,2.0
2019-02-27T03:46:06.330Z,2.0
2019-02-27T03:47:06.775Z,2.0
2019-02-27T03:48:08.166Z,2.0
2019-02-27T03:49:09.724Z,1.9
2019-02-27T03:50:14.643Z,1.9
2019-02-27T03:51:12.478Z,1.9
2019-02-27T03:52:14.051Z,1.9
2019-02-27T03:53:15.441Z,1.9
2019-02-27T03:54:20.630Z,1.9
2019-02-27T03:55:18.777Z,1.9
2019-02-27T03:56:20.169Z,1.9
2019-02-27T03:57:21.659Z,1.9
2019-02-27T03:58:23.063Z,1.9
2019-02-27T03:59:24.918Z,1.9
2019-02-27T04:00:26.337Z,1.9
2019-02-27T04:01:30.486Z,1.9
2019-02-27T04:02:29.206Z,1.9
2019-02-27T04:03:30.713Z,1.9
2019-02-27T04:04:32.116Z,1.9
2019-02-27T04:05:33.510Z,1.8
2019-02-27T04:06:35.034Z,1.8
2019-02-27T04:07:36.432Z,1.9
2019-02-27T04:08:43.627Z,1.9
2019-02-27T04:09:39.359Z,1.8
2019-02-27T04:10:40.745Z,1.8
2019-02-27T04:11:42.827Z,1.8
2019-02-27T04:12:43.676Z,1.8
2019-02-27T04:13:45.070Z,1.8
2019-02-27T04:14:46.461Z,1.8
2019-02-27T04:15:53.332Z,1.9
2019-02-27T04:16:49.352Z,1.7
2019-02-27T04:17:52.205Z,1.8
2019-02-27T04:18:52.318Z,1.7
2019-02-27T04:19:53.717Z,1.7
2019-02-27T04:20:55.112Z,1.7
2019-02-27T04:22:00.625Z,1.7
2019-02-27T04:22:58.393Z,1.7
2019-02-27T04:23:59.956Z,1.6
2019-02-27T04:25:01.342Z,1.8
2019-02-27T04:26:05.331Z,1.6
2019-02-27T04:27:04.181Z,1.7
2019-02-27T04:28:05.694Z,1.6
2019-02-27T04:29:08.495Z,1.7
2019-02-27T04:30:08.441Z,1.6
2019-02-27T04:31:10.015Z,1.7
2019-02-27T04:32:12.395Z,1.6
2019-02-27T04:33:12.756Z,1.6
2019-02-27T04:34:14.334Z,1.6
2019-02-27T04:35:15.730Z,1.6
2019-02-27T04:36:17.145Z,1.7
2019-02-27T04:37:20.406Z,1.6
2019-02-27T04:38:20.062Z,1.6
2019-02-27T04:39:21.592Z,1.7
2019-02-27T04:40:22.986Z,1.6
2019-02-27T04:41:24.376Z,1.6
2019-02-27T04:42:26.518Z,1.6
2019-02-27T04:43:31.911Z,1.5
2019-02-27T04:44:28.993Z,1.6
2019-02-27T04:45:30.658Z,1.6
2019-02-27T04:46:32.049Z,1.6
2019-02-27T04:47:34.106Z,1.6
2019-02-27T04:48:36.155Z,1.5
2019-02-27T04:49:38.396Z,1.6
2019-02-27T04:50:41.703Z,1.5
2019-02-27T04:51:41.587Z,1.5
2019-02-27T04:52:42.967Z,1.4
2019-02-27T04:53:44.357Z,1.5
2019-02-27T04:54:45.814Z,1.5
2019-02-27T04:55:47.971Z,1.6
2019-02-27T04:56:49.064Z,1.5
2019-02-27T04:57:50.456Z,1.5
2019-02-27T04:58:51.977Z,1.4
2019-02-27T04:59:53.371Z,1.5
2019-02-27T05:00:58.853Z,1.5
2019-02-27T05:01:56.301Z,1.4
2019-02-27T05:02:57.695Z,1.5
2019-02-27T05:04:01.365Z,1.5
2019-02-27T05:05:00.621Z,1.5
2019-02-27T05:06:02.013Z,1.5
2019-02-27T05:07:03.501Z,1.5
2019-02-27T05:08:05.267Z,1.5
2019-02-27T05:09:06.791Z,1.6
2019-02-27T05:10:08.195Z,1.5
2019-02-27T05:11:14.000Z,1.5
2019-02-27T05:12:11.214Z,1.5
2019-02-27T05:13:12.985Z,1.5
2019-02-27T05:14:14.376Z,1.5
2019-02-27T05:15:15.844Z,1.4
2019-02-27T05:16:17.240Z,1.5
2019-02-27T05:17:21.218Z,1.5
2019-02-27T05:18:20.164Z,1.5
2019-02-27T05:19:22.326Z,1.5
2019-02-27T05:20:23.714Z,1.5
2019-02-27T05:21:25.305Z,1.5
2019-02-27T05:22:26.787Z,1.5
2019-02-27T05:23:28.186Z,1.5
2019-02-27T05:24:29.578Z,1.5
2019-02-27T05:25:30.968Z,1.5
2019-02-27T05:26:32.507Z,1.4
2019-02-27T05:27:33.914Z,1.4
2019-02-27T05:28:35.611Z,1.5
2019-02-27T05:29:37.576Z,1.5
2019-02-27T05:30:38.207Z,1.5
2019-02-27T05:31:39.599Z,1.5
2019-02-27T05:32:41.262Z,1.4
2019-02-27T05:33:42.658Z,1.5
2019-02-27T05:34:49.414Z,1.5
2019-02-27T05:35:45.850Z,1.4
2019-02-27T05:36:47.239Z,1.5
2019-02-27T05:37:48.628Z,1.4
2019-02-27T05:38:50.202Z,1.4
2019-02-27T05:39:51.780Z,1.4
2019-02-27T05:40:52.950Z,1.4
2019-02-27T05:41:54.624Z,1.3
2019-02-27T05:42:56.016Z,1.3
2019-02-27T05:43:57.425Z,1.4
2019-02-27T05:44:58.948Z,1.4
2019-02-27T05:46:02.778Z,1.2
2019-02-27T05:47:01.718Z,1.4
2019-02-27T05:48:03.270Z,1.3
2019-02-27T05:49:04.660Z,1.4
2019-02-27T05:50:06.665Z,1.4
2019-02-27T05:51:08.341Z,1.3
2019-02-27T05:52:11.879Z,1.3
2019-02-27T05:53:11.086Z,1.2
2019-02-27T05:54:12.480Z,1.4
2019-02-27T05:55:13.874Z,1.2
2019-02-27T05:56:16.329Z,1.3
2019-02-27T05:57:16.768Z,1.3
2019-02-27T05:58:18.155Z,1.2
2019-02-27T05:59:19.740Z,1.3
2019-02-27T06:00:21.133Z,1.2
2019-02-27T06:01:22.525Z,1.3
2019-02-27T06:02:25.470Z,1.2
2019-02-27T06:03:25.418Z,1.3
2019-02-27T06:04:26.930Z,1.3
2019-02-27T06:05:28.320Z,1.2
2019-02-27T06:06:30.020Z,1.3
2019-02-27T06:07:31.411Z,1.3
2019-02-27T06:08:34.857Z,1.2
2019-02-27T06:09:34.490Z,1.2
2019-02-27T06:10:36.367Z,1.3
2019-02-27T06:11:37.758Z,1.2
2019-02-27T06:12:40.886Z,1.2
2019-02-27T06:13:40.713Z,1.2
2019-02-27T06:14:42.107Z,1.2
2019-02-27T06:15:43.500Z,1.2
2019-02-27T06:16:45.033Z,1.3
2019-02-27T06:17:48.778Z,1.2
2019-02-27T06:18:47.917Z,1.3
2019-02-27T06:19:49.309Z,1.2
2019-02-27T06:20:51.002Z,1.3
2019-02-27T06:21:56.037Z,1.3
2019-02-27T06:22:53.895Z,1.3
2019-02-27T06:23:55.289Z,1.3
2019-02-27T06:24:56.970Z,1.3
2019-02-27T06:25:59.573Z,1.3
2019-02-27T06:26:59.721Z,1.3
2019-02-27T06:28:01.292Z,1.2
2019-02-27T06:29:02.727Z,1.3
2019-02-27T06:30:04.078Z,1.2
2019-02-27T06:31:05.613Z,1.3
2019-02-27T06:32:07.005Z,1.3
2019-02-27T06:33:11.613Z,1.3
2019-02-27T06:34:09.934Z,1.2
2019-02-27T06:35:11.720Z,1.2
2019-02-27T06:36:13.120Z,1.3
2019-02-27T06:37:15.608Z,1.4
2019-02-27T06:38:16.035Z,1.4
2019-02-27T06:39:17.551Z,1.3
2019-02-27T06:40:18.948Z,1.4
2019-02-27T06:41:20.659Z,1.3
2019-02-27T06:42:22.067Z,1.4
2019-02-27T06:43:27.148Z,1.4
2019-02-27T06:44:24.958Z,1.3
2019-02-27T06:45:26.356Z,1.4
2019-02-27T06:46:27.746Z,1.4
2019-02-27T06:47:29.275Z,1.4
2019-02-27T06:48:30.671Z,1.4
2019-02-27T06:49:32.364Z,1.4
2019-02-27T06:50:33.758Z,1.5
2019-02-27T06:51:35.892Z,1.4
2019-02-27T06:52:36.808Z,1.4
2019-02-27T06:53:38.328Z,1.5
2019-02-27T06:54:39.724Z,1.6
2019-02-27T06:55:41.442Z,1.4
2019-02-27T06:56:42.837Z,1.5
2019-02-27T06:57:44.231Z,1.5
2019-02-27T06:58:47.536Z,1.5
2019-02-27T06:59:47.330Z,1.5
2019-02-27T07:00:48.721Z,1.5
2019-02-27T07:01:50.268Z,1.5
2019-02-27T07:02:55.152Z,1.5
2019-02-27T07:03:53.431Z,1.5
2019-02-27T07:04:54.997Z,1.5
2019-02-27T07:05:56.399Z,1.5
2019-02-27T07:06:57.790Z,1.5
2019-02-27T07:07:59.326Z,1.5
2019-02-27T07:09:00.737Z,1.6
2019-02-27T07:10:02.415Z,1.5
2019-02-27T07:11:10.835Z,1.5
2019-02-27T07:12:07.028Z,1.6
2019-02-27T07:13:06.657Z,1.5
2019-02-27T07:14:08.369Z,1.6
2019-02-27T07:15:10.248Z,1.6
2019-02-27T07:16:11.626Z,1.6
2019-02-27T07:17:13.019Z,1.7
2019-02-27T07:18:14.417Z,1.6
2019-02-27T07:19:16.411Z,1.6
2019-02-27T07:20:17.732Z,1.7
2019-02-27T07:21:19.125Z,1.7
2019-02-27T07:22:20.707Z,1.8
2019-02-27T07:23:23.617Z,1.8
2019-02-27T07:24:23.591Z,1.8
2019-02-27T07:25:24.985Z,1.9
2019-02-27T07:26:26.682Z,1.9
2019-02-27T07:27:28.336Z,1.9
2019-02-27T07:28:29.433Z,1.9
2019-02-27T07:29:30.896Z,2.0
2019-02-27T07:30:32.290Z,2.1
2019-02-27T07:31:33.687Z,2.1
2019-02-27T07:32:35.329Z,2.2
2019-02-27T07:33:37.980Z,2.1
2019-02-27T07:34:38.199Z,2.2
2019-02-27T07:35:39.599Z,2.3
2019-02-27T07:36:41.287Z,2.3
2019-02-27T07:37:47.013Z,2.3
2019-02-27T07:38:44.452Z,2.3
2019-02-27T07:39:46.016Z,2.4
2019-02-27T07:40:47.426Z,2.3
2019-02-27T07:41:48.822Z,2.4
2019-02-27T07:42:50.339Z,2.5
2019-02-27T07:43:51.731Z,2.4
2019-02-27T07:44:53.133Z,2.4
2019-02-27T07:45:54.658Z,2.4
2019-02-27T07:46:57.481Z,2.4
2019-02-27T07:47:57.413Z,2.4
2019-02-27T07:48:58.981Z,2.5
2019-02-27T07:50:02.663Z,2.5
2019-02-27T07:51:02.064Z,2.5
2019-02-27T07:52:03.464Z,2.5
2019-02-27T07:53:04.866Z,2.5
2019-02-27T07:54:06.389Z,2.6
2019-02-27T07:55:18.619Z,2.6
2019-02-27T07:56:09.518Z,2.6
2019-02-27T07:57:11.123Z,2.7
2019-02-27T07:58:12.520Z,2.7
2019-02-27T07:59:14.876Z,2.8
2019-02-27T08:00:16.283Z,2.8
2019-02-27T08:01:17.905Z,2.8
2019-02-27T08:02:19.299Z,2.9
2019-02-27T08:03:20.697Z,3.0
2019-02-27T08:04:23.026Z,2.9
2019-02-27T08:05:28.311Z,3.0
2019-02-27T08:06:24.943Z,3.0
2019-02-27T08:07:26.548Z,2.9
2019-02-27T08:08:27.944Z,3.0
2019-02-27T08:09:30.254Z,3.0
2019-02-27T08:10:30.910Z,3.1
2019-02-27T08:11:32.319Z,3.1
2019-02-27T08:12:33.702Z,3.2
2019-02-27T08:13:35.403Z,3.2
2019-02-27T08:14:37.246Z,3.2
2019-02-27T08:15:38.284Z,3.3
2019-02-27T08:16:39.691Z,3.2
2019-02-27T08:17:41.115Z,3.3
2019-02-27T08:18:42.803Z,3.3
2019-02-27T08:19:45.262Z,3.4
2019-02-27T08:20:45.584Z,3.4
2019-02-27T08:21:47.127Z,3.5
2019-02-27T08:22:49.562Z,3.5
2019-02-27T08:23:49.880Z,3.6
2019-02-27T08:24:51.452Z,3.7
2019-02-27T08:25:53.227Z,3.7
2019-02-27T08:26:54.752Z,3.9
2019-02-27T08:27:56.144Z,3.8
2019-02-27T08:28:57.539Z,4.0
2019-02-27T08:29:59.840Z,4.1
2019-02-27T08:31:00.315Z,4.0
2019-02-27T08:32:01.804Z,4.0
2019-02-27T08:33:03.395Z,4.0
2019-02-27T08:34:04.788Z,4.0
2019-02-27T08:35:06.463Z,4.2
2019-02-27T08:36:07.857Z,4.3
2019-02-27T08:37:09.594Z,4.2
2019-02-27T08:38:10.991Z,4.6
2019-02-27T08:39:12.392Z,4.8
2019-02-27T08:40:14.079Z,4.9
2019-02-27T08:41:15.477Z,5.1
2019-02-27T08:42:16.873Z,5.2
2019-02-27T08:43:18.395Z,5.2
2019-02-27T08:44:19.796Z,5.3
2019-02-27T08:45:21.512Z,5.3
2019-02-27T08:46:22.915Z,5.5
2019-02-27T08:47:24.574Z,5.7
2019-02-27T08:48:25.977Z,5.7
2019-02-27T08:49:27.363Z,6.0
2019-02-27T08:50:29.296Z,6.0
2019-02-27T08:51:30.259Z,6.1
2019-02-27T08:52:31.652Z,6.1
2019-02-27T08:53:34.502Z,6.3
2019-02-27T08:54:34.857Z,6.6
2019-02-27T08:55:38.967Z,6.9
2019-02-27T08:56:37.868Z,7.2
2019-02-27T08:57:39.389Z,7.6
2019-02-27T08:58:40.909Z,7.9
2019-02-27T08:59:42.475Z,8.1
2019-02-27T09:00:47.144Z,8.5
2019-02-27T09:01:45.800Z,8.7
2019-02-27T09:02:47.196Z,8.8
2019-02-27T09:03:48.852Z,8.9
2019-02-27T09:04:50.257Z,9.1
2019-02-27T09:05:53.718Z,9.4
2019-02-27T09:06:53.383Z,9.8
2019-02-27T09:07:55.023Z,10.3
2019-02-27T09:08:56.469Z,10.8
2019-02-27T09:09:57.876Z,11.3
2019-02-27T09:11:05.548Z,11.7
2019-02-27T09:12:03.058Z,12.1
2019-02-27T09:13:05.387Z,12.5
2019-02-27T09:14:03.870Z,12.6
2019-02-27T09:15:05.579Z,12.8
2019-02-27T09:16:07.163Z,13.3
2019-02-27T09:17:08.558Z,14.0
2019-02-27T09:18:10.247Z,14.7
